createdAt,value
2022-09-20T00:00:11.659Z,10.75
2022-09-20T00:02:37.903Z,6.03
2022-09-20T00:05:04.387Z,9.45
2022-09-20T00:07:30.615Z,5.63
2022-09-20T00:09:57.596Z,7.30
2022-09-20T00:12:23.948Z,4.78
2022-09-20T00:14:50.186Z,4.72
2022-09-20T00:17:16.425Z,7.47
2022-09-20T00:19:42.646Z,7.82
2022-09-20T00:22:08.828Z,4.50
2022-09-20T00:24:36.598Z,3.90
2022-09-20T00:27:03.315Z,8.93
2022-09-20T00:29:29.527Z,7.80
2022-09-20T00:31:55.926Z,4.22
2022-09-20T00:34:40.716Z,7.22
2022-09-20T00:37:06.951Z,9.48
2022-09-20T00:39:33.166Z,7.88
2022-09-20T00:41:59.402Z,7.63
2022-09-20T00:44:47.668Z,6.30
2022-09-20T00:47:13.881Z,6.32
2022-09-20T00:49:40.149Z,5.13
2022-09-20T00:52:06.424Z,5.88
2022-09-20T00:54:33.608Z,7.60
2022-09-20T00:57:00.011Z,7.47
2022-09-20T00:59:34.123Z,6.28
2022-09-20T01:02:07.271Z,7.30
2022-09-20T01:04:34.610Z,6.07
2022-09-20T01:07:02.749Z,9.05
2022-09-20T01:09:28.942Z,9.75
2022-09-20T01:11:55.992Z,3.85
2022-09-20T01:14:23.652Z,5.95
2022-09-20T01:16:51.188Z,6.95
2022-09-20T01:19:20.204Z,7.20
2022-09-20T01:21:47.294Z,5.13
2022-09-20T01:24:22.234Z,7.03
2022-09-20T01:27:00.502Z,5.72
2022-09-20T01:29:26.923Z,5.85
2022-09-20T01:31:54.509Z,6.20
2022-09-20T01:34:43.508Z,6.82
2022-09-20T01:37:29.974Z,7.20
2022-09-20T01:40:12.483Z,7.13
2022-09-20T01:42:42.601Z,4.45
2022-09-20T01:45:17.472Z,9.38
2022-09-20T01:48:02.706Z,6.15
2022-09-20T01:50:43.218Z,10.35
2022-09-20T01:53:09.623Z,8.07
2022-09-20T01:55:35.784Z,6.55
2022-09-20T01:58:02.008Z,7.55
2022-09-20T02:00:31.800Z,4.95
2022-09-20T02:03:04.104Z,7.20
2022-09-20T02:05:38.464Z,6.15
2022-09-20T02:08:13.656Z,5.55
2022-09-20T02:10:42.771Z,6.40
2022-09-20T02:13:09.926Z,5.60
2022-09-20T02:15:38.967Z,6.55
2022-09-20T02:18:23.777Z,6.57
2022-09-20T02:20:56.647Z,9.45
2022-09-20T02:23:29.063Z,9.18
2022-09-20T02:26:13.792Z,6.78
2022-09-20T02:28:40.055Z,6.57
2022-09-20T02:31:24.908Z,5.70
2022-09-20T02:33:51.334Z,4.22
2022-09-20T02:36:30.754Z,7.13
2022-09-20T02:39:10.483Z,16.35
2022-09-20T02:41:51.459Z,5.78
2022-09-20T02:44:36.563Z,5.57
2022-09-20T02:47:25.633Z,7.47
2022-09-20T02:50:12.861Z,9.57
2022-09-20T02:52:44.848Z,7.70
2022-09-20T02:55:32.163Z,6.30
2022-09-20T02:58:23.822Z,10.32
2022-09-20T03:01:13.006Z,7.72
2022-09-20T03:03:51.035Z,8.88
2022-09-20T03:06:23.460Z,6.55
2022-09-20T03:09:08.456Z,6.18
2022-09-20T03:11:44.150Z,6.80
2022-09-20T03:14:11.646Z,6.15
2022-09-20T03:16:43.663Z,6.80
2022-09-20T03:19:16.116Z,5.82
2022-09-20T03:21:52.311Z,7.95
2022-09-20T03:24:21.570Z,5.75
2022-09-20T03:27:00.319Z,4.80
2022-09-20T03:29:47.252Z,5.05
2022-09-20T03:32:19.484Z,7.03
2022-09-20T03:34:48.500Z,6.07
2022-09-20T03:37:20.576Z,5.85
2022-09-20T03:40:09.602Z,4.50
2022-09-20T03:42:41.602Z,6.68
2022-09-20T03:45:18.355Z,4.38
2022-09-20T03:47:50.580Z,7.30
2022-09-20T03:50:19.587Z,5.85
2022-09-20T03:52:54.970Z,8.05
2022-09-20T03:55:24.130Z,7.93
2022-09-20T03:58:03.868Z,6.00
2022-09-20T04:00:33.850Z,5.57
2022-09-20T04:03:03.063Z,7.30
2022-09-20T04:05:41.260Z,6.60
2022-09-20T04:08:19.974Z,8.90
2022-09-20T04:11:18.346Z,7.45
2022-09-20T04:13:55.482Z,7.18
2022-09-20T04:16:31.071Z,6.20
2022-09-20T04:19:01.284Z,8.18
2022-09-20T04:21:43.670Z,7.82
2022-09-20T04:24:39.373Z,5.45
2022-09-20T04:27:12.454Z,9.43
2022-09-20T04:29:41.627Z,6.85
2022-09-20T04:32:26.782Z,6.55
2022-09-20T04:35:16.536Z,5.45
2022-09-20T04:37:43.546Z,7.88
2022-09-20T04:40:29.593Z,8.60
2022-09-20T04:42:55.856Z,6.43
2022-09-20T04:45:42.591Z,9.18
2022-09-20T04:48:15.137Z,6.82
2022-09-20T04:50:50.868Z,7.50
2022-09-20T04:53:35.595Z,5.20
2022-09-20T04:56:01.957Z,4.70
2022-09-20T04:58:36.001Z,7.47
2022-09-20T05:01:05.054Z,5.90
2022-09-20T05:03:50.154Z,5.93
2022-09-20T05:06:41.619Z,9.77
2022-09-20T05:09:26.865Z,12.93
2022-09-20T05:12:02.400Z,6.35
2022-09-20T05:17:03.832Z,9.75
2022-09-20T05:19:52.462Z,7.18
2022-09-20T05:22:37.428Z,10.65
2022-09-20T05:25:22.467Z,6.75
2022-09-20T05:28:07.559Z,10.00
2022-09-20T05:30:39.550Z,7.30
2022-09-20T05:33:12.750Z,7.13
2022-09-20T05:35:38.973Z,7.47
2022-09-20T05:38:16.849Z,6.97
2022-09-20T05:41:03.202Z,9.73
2022-09-20T05:43:39.652Z,12.30
2022-09-20T05:46:41.506Z,10.95
2022-09-20T05:49:16.484Z,7.03
2022-09-20T05:51:52.614Z,12.75
2022-09-20T05:54:25.774Z,10.23
2022-09-20T05:57:11.391Z,9.98
2022-09-20T05:59:45.164Z,11.60
2022-09-20T06:02:13.274Z,9.20
2022-09-20T06:04:56.153Z,6.55
2022-09-20T06:07:36.512Z,9.38
2022-09-20T06:10:05.710Z,10.00
2022-09-20T06:12:35.639Z,6.65
2022-09-20T06:15:13.955Z,9.00
2022-09-20T06:17:55.312Z,8.35
2022-09-20T06:20:24.526Z,10.00
2022-09-20T06:22:55.279Z,8.07
2022-09-20T06:25:29.768Z,11.97
2022-09-20T06:27:58.736Z,9.32
2022-09-20T06:30:29.730Z,9.98
2022-09-20T06:32:57.571Z,11.07
2022-09-20T06:35:26.004Z,9.77
2022-09-20T06:38:18.001Z,8.00
2022-09-20T06:41:04.805Z,10.85
2022-09-20T06:43:31.470Z,10.18
2022-09-20T06:45:58.103Z,12.65
2022-09-20T06:48:25.483Z,8.73
2022-09-20T06:50:52.226Z,11.57
2022-09-20T06:53:20.864Z,9.90
2022-09-20T06:55:47.347Z,8.98
2022-09-20T06:58:13.582Z,7.78
2022-09-20T07:00:39.878Z,9.50
2022-09-20T07:03:06.235Z,11.02
2022-09-20T07:05:32.601Z,8.05
2022-09-20T07:07:59.247Z,8.57
2022-09-20T07:10:28.038Z,8.65
2022-09-20T07:12:59.336Z,6.68
2022-09-20T07:15:29.227Z,7.93
2022-09-20T07:17:55.588Z,7.80
2022-09-20T07:20:22.042Z,7.68
2022-09-20T07:22:48.853Z,7.38
2022-09-20T07:25:15.106Z,6.68
2022-09-20T07:27:41.386Z,9.05
2022-09-20T07:30:08.064Z,6.97
2022-09-20T07:32:34.275Z,11.98
2022-09-20T07:35:01.795Z,8.70
2022-09-20T07:37:27.967Z,7.72
2022-09-20T07:39:54.163Z,6.05
2022-09-20T07:42:20.373Z,6.70
2022-09-20T07:44:47.612Z,7.20
2022-09-20T07:47:14.957Z,6.78
2022-09-20T07:49:41.159Z,6.30
2022-09-20T07:52:07.671Z,7.13
2022-09-20T07:54:33.867Z,3.78
2022-09-20T07:57:00.125Z,6.95
2022-09-20T07:59:26.339Z,4.47
2022-09-20T08:01:52.614Z,6.20
2022-09-20T08:04:18.851Z,5.18
2022-09-20T08:06:45.489Z,5.57
2022-09-20T08:09:12.283Z,6.40
2022-09-20T08:11:39.727Z,4.53
2022-09-20T08:14:07.756Z,4.03
2022-09-20T08:16:39.264Z,4.70
2022-09-20T08:19:05.726Z,4.68
2022-09-20T08:21:32.744Z,8.20
2022-09-20T08:23:59.734Z,5.25
2022-09-20T08:26:26.748Z,6.35
2022-09-20T08:28:54.291Z,5.15
2022-09-20T08:31:21.821Z,5.38
2022-09-20T08:33:48.695Z,4.75
2022-09-20T08:36:15.985Z,6.10
2022-09-20T08:41:38.233Z,7.95
2022-09-20T08:44:07.022Z,5.13
2022-09-20T08:46:35.681Z,4.28
2022-09-20T08:49:03.799Z,7.00
2022-09-20T08:51:33.227Z,4.68
2022-09-20T08:53:59.569Z,3.42
2022-09-20T08:56:29.638Z,5.15
2022-09-20T08:58:58.389Z,4.57
2022-09-20T09:01:26.322Z,5.18
2022-09-20T09:03:58.731Z,3.90
2022-09-20T09:06:24.932Z,4.72
2022-09-20T09:08:53.584Z,15.02
2022-09-20T09:11:20.882Z,4.68
2022-09-20T09:13:55.498Z,4.22
2022-09-20T09:16:28.602Z,4.15
2022-09-20T09:18:55.663Z,5.22
2022-09-20T09:21:25.849Z,4.05
2022-09-20T09:24:01.600Z,9.05
2022-09-20T09:26:28.504Z,3.72
2022-09-20T09:29:10.144Z,3.92
2022-09-20T09:31:38.388Z,6.47
2022-09-20T09:34:04.826Z,6.60
2022-09-20T09:36:31.622Z,5.18
2022-09-20T09:39:16.059Z,6.93
2022-09-20T09:41:43.190Z,4.07
2022-09-20T09:44:20.038Z,4.80
2022-09-20T09:46:46.272Z,5.50
2022-09-20T09:49:21.672Z,5.78
2022-09-20T09:51:57.173Z,4.40
2022-09-20T09:54:24.500Z,3.40
2022-09-20T09:57:05.028Z,4.40
2022-09-20T09:59:51.415Z,5.32
2022-09-20T10:02:26.243Z,5.00
2022-09-20T10:04:58.836Z,5.13
2022-09-20T10:07:39.344Z,4.18
2022-09-20T10:10:05.839Z,6.72
2022-09-20T10:12:55.960Z,6.78
2022-09-20T10:15:26.773Z,4.00
2022-09-20T10:18:08.579Z,2.47
2022-09-20T10:20:53.006Z,2.78
2022-09-20T10:23:59.003Z,7.13
2022-09-20T10:26:41.382Z,3.90
2022-09-20T10:29:17.530Z,5.18
2022-09-20T10:31:52.908Z,4.88
2022-09-20T10:34:38.200Z,4.38
2022-09-20T10:37:09.109Z,3.65
2022-09-20T10:39:36.959Z,7.43
2022-09-20T10:42:40.989Z,5.95
2022-09-20T10:45:29.841Z,3.05
2022-09-20T10:48:07.283Z,5.13
2022-09-20T10:50:43.478Z,4.53
2022-09-20T10:53:14.068Z,3.63
2022-09-20T10:55:59.161Z,1.90
2022-09-20T10:58:26.161Z,4.53
2022-09-20T11:01:01.444Z,4.88
2022-09-20T11:03:35.843Z,4.57
2022-09-20T11:06:10.157Z,3.83
2022-09-20T11:08:38.091Z,4.28
2022-09-20T11:11:10.395Z,5.20
2022-09-20T11:13:46.490Z,5.00
2022-09-20T11:16:16.138Z,4.00
2022-09-20T11:18:48.263Z,5.72
2022-09-20T11:21:28.358Z,4.88
2022-09-20T11:24:04.413Z,4.45
2022-09-20T11:26:34.985Z,3.97
2022-09-20T11:29:04.352Z,11.82
2022-09-20T11:31:37.253Z,4.93
2022-09-20T11:34:08.493Z,8.85
2022-09-20T11:36:39.698Z,5.47
2022-09-20T11:39:13.835Z,3.63
2022-09-20T11:41:40.424Z,3.28
2022-09-20T11:44:11.950Z,7.18
2022-09-20T11:46:40.087Z,4.20
2022-09-20T11:49:12.021Z,4.72
2022-09-20T11:51:57.016Z,5.55
2022-09-20T11:54:23.179Z,3.38
2022-09-20T11:56:53.696Z,5.38
2022-09-20T11:59:28.169Z,5.90
2022-09-20T12:01:56.396Z,1.38
2022-09-20T12:04:34.560Z,4.60
2022-09-20T12:07:08.930Z,2.72
2022-09-20T12:09:38.414Z,3.70
2022-09-20T12:12:15.440Z,3.58
2022-09-20T12:14:42.166Z,2.33
2022-09-20T12:17:28.406Z,3.17
2022-09-20T12:19:54.596Z,6.15
2022-09-20T12:22:28.085Z,4.30
2022-09-20T12:25:13.134Z,4.82
2022-09-20T12:27:39.404Z,3.33
2022-09-20T12:30:15.916Z,1.60
2022-09-20T12:32:44.983Z,2.90
2022-09-20T12:35:30.038Z,4.50
2022-09-20T12:37:56.264Z,2.28
2022-09-20T12:40:25.920Z,3.92
2022-09-20T12:42:56.707Z,3.10
2022-09-20T12:45:23.175Z,5.20
2022-09-20T12:47:53.724Z,4.20
2022-09-20T12:50:39.735Z,4.60
2022-09-20T12:53:12.013Z,4.07
2022-09-20T12:55:45.803Z,4.20
2022-09-20T12:58:13.979Z,3.72
2022-09-20T13:00:51.235Z,1.80
2022-09-20T13:03:34.749Z,2.17
2022-09-20T13:06:07.020Z,2.70
2022-09-20T13:08:42.594Z,3.90
2022-09-20T13:11:39.678Z,5.05
2022-09-20T13:14:06.440Z,3.28
2022-09-20T13:16:35.875Z,2.22
2022-09-20T13:19:16.554Z,2.85
2022-09-20T13:21:50.349Z,3.60
2022-09-20T13:24:18.864Z,4.30
2022-09-20T13:26:45.819Z,3.33
2022-09-20T13:29:30.737Z,7.10
2022-09-20T13:32:14.456Z,3.38
2022-09-20T13:34:41.346Z,3.00
2022-09-20T13:37:15.592Z,5.22
2022-09-20T13:39:41.903Z,7.00
2022-09-20T13:42:12.101Z,3.65
2022-09-20T13:44:38.681Z,3.58
2022-09-20T13:47:25.390Z,6.03
2022-09-20T13:49:51.867Z,3.38
2022-09-20T13:52:25.298Z,2.90
2022-09-20T13:54:51.551Z,2.85
2022-09-20T13:57:22.539Z,4.50
2022-09-20T13:59:49.354Z,2.42
2022-09-20T14:02:32.099Z,1.95
2022-09-20T14:05:03.574Z,3.50
2022-09-20T14:07:30.885Z,3.83
2022-09-20T14:09:58.805Z,2.38
2022-09-20T14:12:26.435Z,1.05
2022-09-20T14:14:53.143Z,4.28
2022-09-20T14:17:21.690Z,5.03
2022-09-20T14:19:49.291Z,2.80
2022-09-20T14:22:18.339Z,3.03
2022-09-20T14:24:56.607Z,3.60
2022-09-20T14:27:22.839Z,0.88
2022-09-20T14:29:53.108Z,2.05
2022-09-20T14:32:19.354Z,1.65
2022-09-20T14:34:46.633Z,1.48
2022-09-20T14:37:19.882Z,1.95
2022-09-20T14:39:48.362Z,1.15
2022-09-20T14:42:18.357Z,1.70
2022-09-20T14:44:44.614Z,1.65
2022-09-20T14:47:14.819Z,2.15
2022-09-20T14:49:43.231Z,4.43
2022-09-20T14:52:23.206Z,3.33
2022-09-20T14:55:00.023Z,2.72
2022-09-20T14:57:26.663Z,5.10
2022-09-20T14:59:54.876Z,2.70
2022-09-20T15:02:21.376Z,3.00
2022-09-20T15:04:55.249Z,3.47
2022-09-20T15:07:21.588Z,1.85
2022-09-20T15:09:47.867Z,1.88
2022-09-20T15:12:18.350Z,1.45
2022-09-20T15:14:44.855Z,2.90
2022-09-20T15:17:15.768Z,4.55
2022-09-20T15:19:41.975Z,1.20
2022-09-20T15:22:09.072Z,2.10
2022-09-20T15:24:35.392Z,2.40
2022-09-20T15:27:01.683Z,2.97
2022-09-20T15:29:27.900Z,2.35
2022-09-20T15:31:54.159Z,3.65
2022-09-20T15:34:20.439Z,2.40
2022-09-20T15:36:46.940Z,3.92
2022-09-20T15:39:13.228Z,2.50
2022-09-20T15:41:40.006Z,3.80
2022-09-20T15:44:06.484Z,1.77
2022-09-20T15:46:32.710Z,3.67
2022-09-20T15:49:00.437Z,2.15
2022-09-20T15:51:26.989Z,3.60
2022-09-20T15:53:57.504Z,3.50
2022-09-20T15:56:25.075Z,1.52
2022-09-20T15:58:52.711Z,3.58
2022-09-20T16:01:19.371Z,1.48
2022-09-20T16:03:46.233Z,3.13
2022-09-20T16:06:13.259Z,2.53
2022-09-20T16:08:40.256Z,3.47
2022-09-20T16:11:07.742Z,2.38
2022-09-20T16:13:36.154Z,3.20
2022-09-20T16:16:03.106Z,2.28
2022-09-20T16:18:48.135Z,2.42
2022-09-20T16:21:16.100Z,3.13
2022-09-20T16:23:45.928Z,3.15
2022-09-20T16:26:14.516Z,1.02
2022-09-20T16:28:45.202Z,1.77
2022-09-20T16:31:34.457Z,2.08
2022-09-20T16:34:05.268Z,2.33
2022-09-20T16:36:32.188Z,2.50
2022-09-20T16:38:58.777Z,2.15
2022-09-20T16:41:26.071Z,4.47
2022-09-20T16:43:52.783Z,3.25
2022-09-20T16:46:20.294Z,2.28
2022-09-20T16:48:47.503Z,2.00
2022-09-20T16:51:14.374Z,3.38
2022-09-20T16:53:41.066Z,2.33
2022-09-20T16:56:07.623Z,2.92
2022-09-20T16:58:35.431Z,3.00
2022-09-20T17:01:08.622Z,2.03
2022-09-20T17:03:34.852Z,1.85
2022-09-20T17:06:02.588Z,3.95
2022-09-20T17:08:28.778Z,2.58
2022-09-20T17:10:58.519Z,2.38
2022-09-20T17:13:25.339Z,3.42
2022-09-20T17:16:11.831Z,5.95
2022-09-20T17:18:42.700Z,1.98
2022-09-20T17:21:13.797Z,1.67
2022-09-20T17:23:41.136Z,1.95
2022-09-20T17:26:11.518Z,2.30
2022-09-20T17:28:42.087Z,2.75
2022-09-20T17:31:09.932Z,2.35
2022-09-20T17:33:36.512Z,3.25
2022-09-20T17:36:03.712Z,3.33
2022-09-20T17:38:33.881Z,2.63
2022-09-20T17:41:10.640Z,2.17
2022-09-20T17:43:37.436Z,1.70
2022-09-20T17:46:33.145Z,1.77
2022-09-20T17:49:00.987Z,11.82
2022-09-20T17:51:34.898Z,5.63
2022-09-20T17:54:01.441Z,3.55
2022-09-20T17:56:31.150Z,4.60
2022-09-20T17:59:01.289Z,2.38
2022-09-20T18:01:28.411Z,8.65
2022-09-20T18:03:58.524Z,3.85
2022-09-20T18:06:26.656Z,2.55
2022-09-20T18:08:54.392Z,2.28
2022-09-20T18:11:21.643Z,3.17
2022-09-20T18:13:48.053Z,4.43
2022-09-20T18:16:15.729Z,3.05
2022-09-20T18:18:43.492Z,2.90
2022-09-20T18:21:16.720Z,2.25
2022-09-20T18:23:43.755Z,2.25
2022-09-20T18:26:23.068Z,2.50
2022-09-20T18:29:09.343Z,3.50
2022-09-20T18:31:37.750Z,2.72
2022-09-20T18:34:05.542Z,2.55
2022-09-20T18:36:32.883Z,3.05
2022-09-20T18:38:59.570Z,4.43
2022-09-20T18:41:26.913Z,2.90
2022-09-20T18:43:54.038Z,3.10
2022-09-20T18:46:24.851Z,4.03
2022-09-20T18:48:51.933Z,2.87
2022-09-20T18:51:18.553Z,2.80
2022-09-20T18:53:44.938Z,3.30
2022-09-20T18:56:17.417Z,2.22
2022-09-20T18:58:44.880Z,5.78
2022-09-20T19:01:17.408Z,4.03
2022-09-20T19:03:53.969Z,4.40
2022-09-20T19:06:22.100Z,4.03
2022-09-20T19:08:57.558Z,3.42
2022-09-20T19:11:30.111Z,2.70
2022-09-20T19:14:22.848Z,7.07
2022-09-20T19:16:51.695Z,3.80
2022-09-20T19:19:21.504Z,3.38
2022-09-20T19:22:00.080Z,4.53
2022-09-20T19:24:51.984Z,4.63
2022-09-20T19:29:44.511Z,4.97
2022-09-20T19:32:15.162Z,6.40
2022-09-20T19:34:44.818Z,4.10
2022-09-20T19:37:18.544Z,2.88
2022-09-20T19:39:50.958Z,6.68
2022-09-20T19:42:31.956Z,3.38
2022-09-20T19:45:16.700Z,2.40
2022-09-20T19:47:45.646Z,2.88
2022-09-20T19:50:18.008Z,4.03
2022-09-20T19:52:44.450Z,3.72
2022-09-20T19:55:12.359Z,3.25
2022-09-20T19:57:47.809Z,5.63
2022-09-20T20:00:15.461Z,2.50
2022-09-20T20:02:42.741Z,3.40
2022-09-20T20:05:12.834Z,3.58
2022-09-20T20:07:45.498Z,3.05
2022-09-20T20:10:11.710Z,4.45
2022-09-20T20:12:46.446Z,4.57
2022-09-20T20:15:21.905Z,2.95
2022-09-20T20:17:54.383Z,4.32
2022-09-20T20:20:28.346Z,3.28
2022-09-20T20:23:13.330Z,4.38
2022-09-20T20:25:39.543Z,3.10
2022-09-20T20:28:05.811Z,4.15
2022-09-20T20:30:32.041Z,2.63
2022-09-20T20:32:58.221Z,4.00
2022-09-20T20:35:25.707Z,3.10
2022-09-20T20:37:52.289Z,4.90
2022-09-20T20:40:18.658Z,2.45
2022-09-20T20:42:45.447Z,3.40
2022-09-20T20:45:11.994Z,3.75
2022-09-20T20:47:39.942Z,4.80
2022-09-20T20:50:06.362Z,5.28
2022-09-20T20:52:32.579Z,6.22
2022-09-20T20:54:59.999Z,3.83
2022-09-20T20:57:26.524Z,3.97
2022-09-20T20:59:52.897Z,6.60
2022-09-20T21:02:19.637Z,7.03
2022-09-20T21:04:46.627Z,7.05
2022-09-20T21:07:12.833Z,5.10
2022-09-20T21:09:39.669Z,7.32
2022-09-20T21:12:06.055Z,6.97
2022-09-20T21:14:34.514Z,5.10
2022-09-20T21:17:01.803Z,5.78
2022-09-20T21:19:28.128Z,6.00
2022-09-20T21:21:54.342Z,4.28
2022-09-20T21:24:20.671Z,4.88
2022-09-20T21:26:47.433Z,4.45
2022-09-20T21:29:14.701Z,7.47
2022-09-20T21:31:43.315Z,3.83
2022-09-20T21:34:11.057Z,6.22
2022-09-20T21:36:38.173Z,5.70
2022-09-20T21:39:05.220Z,3.42
2022-09-20T21:41:32.473Z,5.45
2022-09-20T21:44:00.320Z,3.63
2022-09-20T21:46:31.170Z,4.57
2022-09-20T21:48:58.238Z,4.75
2022-09-20T21:51:25.056Z,4.05
2022-09-20T21:53:56.400Z,5.28
2022-09-20T21:56:23.396Z,4.57
2022-09-20T21:58:49.591Z,5.88
2022-09-20T22:01:17.232Z,7.25
2022-09-20T22:03:44.417Z,6.60
2022-09-20T22:06:10.618Z,3.13
2022-09-20T22:08:38.183Z,4.22
2022-09-20T22:11:04.874Z,5.82
2022-09-20T22:13:31.392Z,5.82
2022-09-20T22:16:07.881Z,5.18
2022-09-20T22:18:35.510Z,5.30
2022-09-20T22:21:05.763Z,7.72
2022-09-20T22:23:32.117Z,6.50
2022-09-20T22:25:59.471Z,3.88
2022-09-20T22:28:25.681Z,4.28
2022-09-20T22:30:52.447Z,4.63
2022-09-20T22:33:18.670Z,6.55
2022-09-20T22:35:45.083Z,3.83
2022-09-20T22:38:11.316Z,5.38
2022-09-20T22:40:37.604Z,2.90
2022-09-20T22:43:03.795Z,7.63
2022-09-20T22:45:32.014Z,7.55
2022-09-20T22:47:58.232Z,5.38
2022-09-20T22:50:24.446Z,4.93
2022-09-20T22:52:50.671Z,3.85
2022-09-20T22:55:16.861Z,4.97
2022-09-20T22:57:43.109Z,4.97
2022-09-20T23:00:09.643Z,6.30
2022-09-20T23:02:35.895Z,5.72
2022-09-20T23:05:02.277Z,4.40
2022-09-20T23:07:28.489Z,3.55
2022-09-20T23:09:54.703Z,4.72
2022-09-20T23:12:20.885Z,5.47
2022-09-20T23:14:47.094Z,7.60
2022-09-20T23:17:13.292Z,6.68
2022-09-20T23:19:39.525Z,5.15
2022-09-20T23:22:05.710Z,5.60
2022-09-20T23:24:31.901Z,4.90
2022-09-20T23:26:58.104Z,5.35
2022-09-20T23:29:26.419Z,5.95
2022-09-20T23:31:52.643Z,5.30
2022-09-20T23:34:19.042Z,4.15
2022-09-20T23:36:45.774Z,4.95
2022-09-20T23:39:12.437Z,5.43
2022-09-20T23:41:38.994Z,5.25
2022-09-20T23:44:06.441Z,7.97
2022-09-20T23:46:33.238Z,6.65
2022-09-20T23:48:59.582Z,8.15
2022-09-20T23:51:26.295Z,5.57
2022-09-20T23:53:52.993Z,5.15
2022-09-20T23:56:19.723Z,4.88
2022-09-20T23:58:46.390Z,3.90
